Time;durP1;ratioP1;P1;durP2;ratioP2;P2;SDS_P1;SDS_P2;PMS_P1;PMS_P2;Temp;Humidity;BMP_temperature;BMP_pressure;BME280_temperature;BME280_humidity;BME280_pressure;Samples;Min_cycle;Max_cycle;Signal;HPM_P1;HPM_P2
2024/03/22 00:00:15;;;;;;;3.13;2.13;;;;;;;;;;5001671;28;20069;-61
2024/03/22 00:02:41;;;;;;;3.30;1.90;;;;;;;;;;5001398;28;20432;-61
2024/03/22 00:05:06;;;;;;;3.28;1.90;;;;;;;;;;4999830;28;20041;-61
2024/03/22 00:07:31;;;;;;;2.95;1.70;;;;;;;;;;5003167;28;20033;-61
2024/03/22 00:09:57;;;;;;;3.40;2.20;;;;;;;;;;5001102;28;20037;-61
2024/03/22 00:12:22;;;;;;;2.92;1.80;;;;;;;;;;5000233;28;20041;-62
2024/03/22 00:14:47;;;;;;;2.72;1.88;;;;;;;;;;5002451;28;20628;-61
2024/03/22 00:17:13;;;;;;;2.85;1.90;;;;;;;;;;5001272;28;20868;-62
2024/03/22 00:19:38;;;;;;;2.88;1.88;;;;;;;;;;5000222;28;20041;-61
2024/03/22 00:22:03;;;;;;;2.67;1.80;;;;;;;;;;5002788;28;20050;-61
2024/03/22 00:24:29;;;;;;;3.08;2.00;;;;;;;;;;4988119;28;20054;-61
2024/03/22 00:26:54;;;;;;;2.40;1.65;;;;;;;;;;4987629;28;20140;-61
2024/03/22 00:29:19;;;;;;;2.75;1.80;;;;;;;;;;4991830;28;20037;-62
2024/03/22 00:31:44;;;;;;;3.35;1.75;;;;;;;;;;5003881;28;20487;-61
2024/03/22 00:34:10;;;;;;;2.72;1.42;;;;;;;;;;4999265;28;20438;-61
2024/03/22 00:36:35;;;;;;;3.05;2.03;;;;;;;;;;4998676;28;20030;-61
2024/03/22 00:39:01;;;;;;;2.85;1.90;;;;;;;;;;5003418;28;20100;-61
2024/03/22 00:41:26;;;;;;;2.83;1.67;;;;;;;;;;4986568;28;20046;-61
2024/03/22 00:43:51;;;;;;;3.35;1.70;;;;;;;;;;4992349;28;20038;-61
2024/03/22 00:46:16;;;;;;;3.45;1.70;;;;;;;;;;4987312;28;20048;-61
2024/03/22 00:48:42;;;;;;;2.38;2.10;;;;;;;;;;4990485;28;20186;-61
2024/03/22 00:51:07;;;;;;;2.85;1.90;;;;;;;;;;4994161;28;20123;-61
2024/03/22 00:53:32;;;;;;;3.95;2.05;;;;;;;;;;4996183;28;20044;-61
2024/03/22 00:55:59;;;;;;;3.13;1.90;;;;;;;;;;5006881;28;20065;-62
2024/03/22 00:58:25;;;;;;;4.32;2.00;;;;;;;;;;4996544;28;20136;-61
2024/03/22 01:00:50;;;;;;;2.58;1.80;;;;;;;;;;4999194;28;20206;-61
2024/03/22 01:03:15;;;;;;;4.28;2.10;;;;;;;;;;4993407;28;20042;-61
2024/03/22 01:05:42;;;;;;;3.00;1.90;;;;;;;;;;5004834;28;20041;-61
2024/03/22 01:08:07;;;;;;;2.92;2.10;;;;;;;;;;4998236;28;20076;-61
2024/03/22 01:10:33;;;;;;;2.83;2.00;;;;;;;;;;4987171;28;20117;-61
2024/03/22 01:12:58;;;;;;;2.83;1.90;;;;;;;;;;4987773;28;20433;-61
2024/03/22 01:15:23;;;;;;;2.90;2.00;;;;;;;;;;4991941;28;20034;-61
2024/03/22 01:17:49;;;;;;;2.72;2.03;;;;;;;;;;4991373;28;20429;-61
2024/03/22 01:20:14;;;;;;;3.42;2.10;;;;;;;;;;4996906;28;20034;-62
2024/03/22 01:22:40;;;;;;;4.50;2.40;;;;;;;;;;5000464;28;20140;-61
2024/03/22 01:25:05;;;;;;;3.33;2.00;;;;;;;;;;5005587;28;20110;-61
2024/03/22 01:27:31;;;;;;;3.22;2.30;;;;;;;;;;5003047;28;20092;-61
2024/03/22 01:29:56;;;;;;;2.92;2.17;;;;;;;;;;4987218;28;20493;-61
2024/03/22 01:32:21;;;;;;;3.08;2.22;;;;;;;;;;4996310;28;20042;-61
2024/03/22 01:34:47;;;;;;;3.72;2.47;;;;;;;;;;4998764;28;20052;-61
2024/03/22 01:37:12;;;;;;;2.85;1.88;;;;;;;;;;5003909;28;20424;-60
2024/03/22 01:39:37;;;;;;;3.20;2.10;;;;;;;;;;5001537;28;20045;-60
2024/03/22 01:42:02;;;;;;;3.28;2.15;;;;;;;;;;4993489;28;20050;-59
2024/03/22 01:44:28;;;;;;;3.20;1.88;;;;;;;;;;4991097;28;20030;-61
2024/03/22 01:46:53;;;;;;;3.53;2.40;;;;;;;;;;4986465;28;20030;-61
2024/03/22 01:49:18;;;;;;;3.60;2.40;;;;;;;;;;4997906;28;20038;-60
2024/03/22 01:51:44;;;;;;;3.22;2.22;;;;;;;;;;4989833;28;20050;-61
2024/03/22 01:54:09;;;;;;;3.42;2.28;;;;;;;;;;4993061;28;20151;-61
2024/03/22 01:56:36;;;;;;;3.45;2.17;;;;;;;;;;5002376;28;20065;-61
2024/03/22 01:59:02;;;;;;;3.22;2.33;;;;;;;;;;5003425;28;20039;-60
2024/03/22 02:01:27;;;;;;;3.00;2.15;;;;;;;;;;4996438;28;20046;-60
2024/03/22 02:03:52;;;;;;;2.95;2.10;;;;;;;;;;4990336;28;20125;-61
2024/03/22 02:06:18;;;;;;;3.47;2.40;;;;;;;;;;4992719;28;20030;-60
2024/03/22 02:08:44;;;;;;;3.88;2.47;;;;;;;;;;4986394;28;20767;-60
2024/03/22 02:11:09;;;;;;;3.90;2.50;;;;;;;;;;4988422;28;20603;-60
2024/03/22 02:13:34;;;;;;;3.20;2.35;;;;;;;;;;5000610;28;20060;-60
2024/03/22 02:16:02;;;;;;;3.88;2.40;;;;;;;;;;4997002;28;20495;-60
2024/03/22 02:18:27;;;;;;;3.65;2.40;;;;;;;;;;5006240;28;20054;-61
2024/03/22 02:20:53;;;;;;;3.15;2.10;;;;;;;;;;5002875;28;20052;-61
2024/03/22 02:23:21;;;;;;;3.03;2.17;;;;;;;;;;5000152;28;20048;-61
2024/03/22 02:25:47;;;;;;;4.45;2.72;;;;;;;;;;5003652;28;20319;-60
2024/03/22 02:28:12;;;;;;;3.67;2.42;;;;;;;;;;5006600;28;20030;-60
2024/03/22 02:30:37;;;;;;;4.65;2.40;;;;;;;;;;5003842;28;20096;-61
2024/03/22 02:33:02;;;;;;;3.83;2.33;;;;;;;;;;4988493;28;20030;-60
2024/03/22 02:35:28;;;;;;;3.58;2.40;;;;;;;;;;4991849;28;20897;-60
2024/03/22 02:37:53;;;;;;;4.03;2.40;;;;;;;;;;5006238;28;20485;-60
2024/03/22 02:40:18;;;;;;;4.18;2.30;;;;;;;;;;5004059;28;20025;-60
2024/03/22 02:42:44;;;;;;;4.75;2.60;;;;;;;;;;4990017;28;20120;-60
2024/03/22 02:45:09;;;;;;;3.97;2.78;;;;;;;;;;4985661;28;20798;-60
2024/03/22 02:47:34;;;;;;;4.05;2.70;;;;;;;;;;4999042;28;20029;-60
2024/03/22 02:49:59;;;;;;;3.78;2.70;;;;;;;;;;5005171;28;20030;-61
2024/03/22 02:52:25;;;;;;;3.58;2.50;;;;;;;;;;4998699;28;20030;-60
2024/03/22 02:54:50;;;;;;;4.50;2.70;;;;;;;;;;5003467;28;20113;-60
2024/03/22 02:57:15;;;;;;;4.75;2.85;;;;;;;;;;5003795;28;20026;-60
2024/03/22 02:59:40;;;;;;;4.20;2.80;;;;;;;;;;5001317;28;20033;-60
2024/03/22 03:02:06;;;;;;;4.65;3.03;;;;;;;;;;4989161;28;20037;-60
2024/03/22 03:04:31;;;;;;;4.50;2.60;;;;;;;;;;5002718;28;20026;-60
2024/03/22 03:06:56;;;;;;;3.95;2.67;;;;;;;;;;5005136;28;20038;-61
2024/03/22 03:09:22;;;;;;;4.00;2.67;;;;;;;;;;5007509;28;20014;-60
2024/03/22 03:11:47;;;;;;;3.70;2.55;;;;;;;;;;5003403;28;21312;-61
2024/03/22 03:14:12;;;;;;;3.75;2.50;;;;;;;;;;5006319;28;20386;-60
2024/03/22 03:16:37;;;;;;;3.60;2.55;;;;;;;;;;4989901;28;20076;-60
2024/03/22 03:19:03;;;;;;;4.75;2.70;;;;;;;;;;5005217;28;20068;-61
2024/03/22 03:21:28;;;;;;;4.72;2.80;;;;;;;;;;4995901;28;20030;-59
2024/03/22 03:23:54;;;;;;;4.10;2.85;;;;;;;;;;5004471;28;20049;-60
2024/03/22 03:26:19;;;;;;;4.43;2.70;;;;;;;;;;5002141;28;20037;-62
2024/03/22 03:28:44;;;;;;;3.60;2.60;;;;;;;;;;4989627;28;20050;-61
2024/03/22 03:31:10;;;;;;;4.18;2.70;;;;;;;;;;4989535;28;20030;-61
2024/03/22 03:33:35;;;;;;;3.67;2.70;;;;;;;;;;4986779;28;20046;-61
2024/03/22 03:36:00;;;;;;;3.80;2.78;;;;;;;;;;4988666;28;20105;-61
2024/03/22 03:38:26;;;;;;;3.65;2.65;;;;;;;;;;4989258;28;20576;-61
2024/03/22 03:40:51;;;;;;;3.85;2.67;;;;;;;;;;4997353;28;20042;-61
2024/03/22 03:43:16;;;;;;;5.75;2.70;;;;;;;;;;4989411;28;20026;-61
2024/03/22 03:45:42;;;;;;;5.32;3.05;;;;;;;;;;5003025;28;20466;-61
2024/03/22 03:48:07;;;;;;;5.50;3.05;;;;;;;;;;5007036;28;20088;-61
2024/03/22 03:50:32;;;;;;;3.95;2.80;;;;;;;;;;5003707;28;20054;-61
2024/03/22 03:52:57;;;;;;;4.90;2.97;;;;;;;;;;4999323;28;20026;-61
2024/03/22 03:55:23;;;;;;;3.72;2.53;;;;;;;;;;5000723;28;20573;-60
2024/03/22 03:57:51;;;;;;;4.93;2.63;;;;;;;;;;4991589;28;20054;-61
2024/03/22 04:00:18;;;;;;;3.55;2.40;;;;;;;;;;4994581;28;20538;-61
2024/03/22 04:02:43;;;;;;;4.38;3.00;;;;;;;;;;4987008;28;20066;-61
2024/03/22 04:05:08;;;;;;;4.47;2.85;;;;;;;;;;4962228;28;1204061;-61
2024/03/22 04:07:33;;;;;;;4.07;3.03;;;;;;;;;;5005336;28;20520;-61
2024/03/22 04:10:00;;;;;;;4.32;3.05;;;;;;;;;;5007777;28;20077;-60
2024/03/22 04:12:25;;;;;;;4.60;2.92;;;;;;;;;;5007571;28;20037;-59
2024/03/22 04:14:51;;;;;;;4.05;2.90;;;;;;;;;;4988872;28;20041;-60
2024/03/22 04:17:16;;;;;;;4.15;2.65;;;;;;;;;;4992222;28;20150;-60
2024/03/22 04:19:41;;;;;;;4.53;2.95;;;;;;;;;;4990921;28;20030;-60
2024/03/22 04:22:07;;;;;;;4.57;2.88;;;;;;;;;;4988331;28;20116;-60
2024/03/22 04:24:32;;;;;;;4.50;2.75;;;;;;;;;;4998537;28;20044;-60
2024/03/22 04:26:57;;;;;;;4.45;2.95;;;;;;;;;;5006862;28;20494;-60
2024/03/22 04:29:22;;;;;;;4.00;2.85;;;;;;;;;;5003348;28;20050;-60
2024/03/22 04:31:48;;;;;;;4.90;3.03;;;;;;;;;;5008081;28;20099;-59
2024/03/22 04:34:13;;;;;;;3.70;2.92;;;;;;;;;;5004133;28;20145;-60
2024/03/22 04:36:38;;;;;;;3.95;3.15;;;;;;;;;;4999043;28;20037;-62
2024/03/22 04:39:03;;;;;;;4.97;3.45;;;;;;;;;;4997717;28;20805;-59
2024/03/22 04:41:29;;;;;;;4.03;3.10;;;;;;;;;;5001955;28;20068;-62
2024/03/22 04:43:54;;;;;;;4.85;3.08;;;;;;;;;;4992775;28;20033;-61
2024/03/22 04:46:19;;;;;;;5.05;3.08;;;;;;;;;;4992862;28;20536;-61
2024/03/22 04:48:45;;;;;;;4.97;3.45;;;;;;;;;;4992065;28;20048;-60
2024/03/22 04:51:10;;;;;;;4.78;3.00;;;;;;;;;;4993537;28;20034;-60
2024/03/22 04:53:35;;;;;;;5.03;3.30;;;;;;;;;;4998099;28;21590;-60
2024/03/22 04:56:00;;;;;;;5.45;2.92;;;;;;;;;;5000039;28;20737;-60
2024/03/22 04:58:26;;;;;;;4.70;3.13;;;;;;;;;;5001905;28;20037;-60
2024/03/22 05:00:55;;;;;;;4.50;2.95;;;;;;;;;;5000662;28;20632;-60
2024/03/22 05:03:21;;;;;;;4.38;3.30;;;;;;;;;;4998289;28;20042;-60
2024/03/22 05:05:46;;;;;;;4.32;3.22;;;;;;;;;;4999918;28;20418;-60
2024/03/22 05:08:11;;;;;;;4.78;3.13;;;;;;;;;;4998627;28;20048;-61
2024/03/22 05:10:37;;;;;;;4.47;3.50;;;;;;;;;;4999976;28;20038;-63
2024/03/22 05:13:02;;;;;;;4.63;3.20;;;;;;;;;;5001684;28;20056;-60
2024/03/22 05:15:28;;;;;;;4.20;2.83;;;;;;;;;;4997678;28;20034;-61
2024/03/22 05:17:53;;;;;;;4.50;3.28;;;;;;;;;;4999126;28;20061;-61
2024/03/22 05:20:19;;;;;;;4.43;2.95;;;;;;;;;;4998293;28;20037;-60
2024/03/22 05:22:44;;;;;;;4.80;3.03;;;;;;;;;;4999742;28;20944;-60
2024/03/22 05:25:09;;;;;;;4.32;3.03;;;;;;;;;;4998529;28;20124;-61
2024/03/22 05:27:35;;;;;;;6.05;3.22;;;;;;;;;;4998296;28;20568;-61
2024/03/22 05:30:00;;;;;;;4.22;3.03;;;;;;;;;;4998854;28;20477;-60
2024/03/22 05:32:26;;;;;;;4.50;3.13;;;;;;;;;;5000925;28;20030;-61
2024/03/22 05:34:51;;;;;;;4.85;2.90;;;;;;;;;;4998943;28;20034;-61
2024/03/22 05:37:17;;;;;;;4.38;3.03;;;;;;;;;;4999899;28;20453;-60
2024/03/22 05:39:42;;;;;;;5.10;3.30;;;;;;;;;;4998546;28;21078;-60
2024/03/22 05:42:07;;;;;;;5.03;3.25;;;;;;;;;;4999413;28;20049;-60
2024/03/22 05:44:33;;;;;;;5.03;3.03;;;;;;;;;;4998170;28;20026;-61
2024/03/22 05:46:58;;;;;;;4.00;2.97;;;;;;;;;;4999413;28;20568;-61
2024/03/22 05:49:23;;;;;;;4.25;3.17;;;;;;;;;;4999851;28;20037;-61
2024/03/22 05:51:48;;;;;;;5.03;3.30;;;;;;;;;;4999561;28;20586;-60
2024/03/22 05:54:14;;;;;;;4.93;3.53;;;;;;;;;;4999075;28;20041;-61
2024/03/22 05:56:39;;;;;;;5.07;3.25;;;;;;;;;;4998205;28;20088;-60
2024/03/22 05:59:04;;;;;;;4.65;3.30;;;;;;;;;;4999619;28;20037;-60
2024/03/22 06:01:31;;;;;;;4.03;3.00;;;;;;;;;;4999814;28;21018;-61
2024/03/22 06:03:56;;;;;;;4.90;3.15;;;;;;;;;;4999210;28;20038;-61
2024/03/22 06:06:25;;;;;;;5.82;3.30;;;;;;;;;;4999578;28;20477;-61
2024/03/22 06:08:53;;;;;;;5.50;3.08;;;;;;;;;;4998917;28;20033;-61
2024/03/22 06:11:19;;;;;;;4.85;3.28;;;;;;;;;;4998716;28;20091;-61
2024/03/22 06:13:44;;;;;;;4.85;3.15;;;;;;;;;;4997745;28;20038;-61
2024/03/22 06:16:09;;;;;;;4.78;2.90;;;;;;;;;;4998175;28;20160;-60
2024/03/22 06:18:35;;;;;;;5.30;3.10;;;;;;;;;;5000526;28;20421;-61
2024/03/22 06:21:00;;;;;;;5.70;3.20;;;;;;;;;;4998433;28;20144;-59
2024/03/22 06:23:25;;;;;;;4.32;2.95;;;;;;;;;;4996770;28;20434;-59
2024/03/22 06:25:51;;;;;;;5.20;3.28;;;;;;;;;;4995632;28;20041;-59
2024/03/22 06:28:16;;;;;;;5.55;3.17;;;;;;;;;;4996300;28;20215;-59
2024/03/22 06:30:42;;;;;;;4.15;3.15;;;;;;;;;;4998453;28;20062;-59
2024/03/22 06:33:07;;;;;;;6.47;3.28;;;;;;;;;;4997481;28;20037;-61
2024/03/22 06:35:32;;;;;;;5.32;3.30;;;;;;;;;;4999521;28;20121;-60
2024/03/22 06:37:58;;;;;;;4.03;3.05;;;;;;;;;;4999172;28;20037;-59
2024/03/22 06:40:23;;;;;;;4.65;2.92;;;;;;;;;;5000452;28;20527;-60
2024/03/22 06:42:48;;;;;;;5.22;3.17;;;;;;;;;;5000816;28;20053;-60
2024/03/22 06:45:15;;;;;;;5.75;3.17;;;;;;;;;;5000494;28;20611;-62
2024/03/22 06:47:40;;;;;;;5.90;3.00;;;;;;;;;;5000298;28;20724;-63
2024/03/22 06:50:06;;;;;;;7.13;3.45;;;;;;;;;;4999470;28;20121;-61
2024/03/22 06:52:31;;;;;;;4.88;3.00;;;;;;;;;;5000749;28;20042;-62
2024/03/22 06:54:56;;;;;;;5.35;2.88;;;;;;;;;;4998328;28;20041;-63
2024/03/22 06:57:22;;;;;;;4.55;3.22;;;;;;;;;;4998796;28;20062;-62
2024/03/22 06:59:47;;;;;;;4.15;2.85;;;;;;;;;;4998495;28;20036;-61
2024/03/22 07:02:14;;;;;;;4.43;3.20;;;;;;;;;;4998817;28;20038;-62
2024/03/22 07:04:39;;;;;;;4.30;3.15;;;;;;;;;;4998331;28;20369;-61
2024/03/22 07:07:04;;;;;;;4.60;3.00;;;;;;;;;;4998500;28;20521;-61
2024/03/22 07:09:32;;;;;;;5.05;3.13;;;;;;;;;;4997940;28;20847;-61
2024/03/22 07:11:57;;;;;;;5.15;3.20;;;;;;;;;;4998029;28;20030;-61
2024/03/22 07:14:25;;;;;;;4.18;2.92;;;;;;;;;;4997794;28;20045;-61
2024/03/22 07:16:50;;;;;;;4.20;2.90;;;;;;;;;;4997560;28;20062;-63
2024/03/22 07:19:15;;;;;;;5.05;3.33;;;;;;;;;;4998955;28;20124;-62
2024/03/22 07:21:41;;;;;;;5.38;3.20;;;;;;;;;;4997525;28;20034;-61
2024/03/22 07:24:06;;;;;;;5.13;3.30;;;;;;;;;;4998591;28;20104;-62
2024/03/22 07:26:31;;;;;;;4.68;3.20;;;;;;;;;;4997698;28;20460;-62
2024/03/22 07:28:56;;;;;;;6.05;3.30;;;;;;;;;;4998023;28;20041;-61
2024/03/22 07:31:22;;;;;;;3.80;2.90;;;;;;;;;;4991650;28;20044;-63
2024/03/22 07:33:47;;;;;;;5.60;3.30;;;;;;;;;;4997837;28;20088;-61
2024/03/22 07:36:15;;;;;;;4.28;3.15;;;;;;;;;;4997789;28;20172;-62
2024/03/22 07:38:40;;;;;;;4.15;3.05;;;;;;;;;;4991412;28;20034;-62
2024/03/22 07:41:05;;;;;;;4.65;3.28;;;;;;;;;;5000660;28;20050;-63
2024/03/22 07:43:31;;;;;;;4.68;2.97;;;;;;;;;;5003335;28;20034;-60
2024/03/22 07:45:56;;;;;;;4.13;3.00;;;;;;;;;;5002288;28;20058;-62
2024/03/22 07:48:21;;;;;;;5.93;2.95;;;;;;;;;;5001585;28;20035;-61
2024/03/22 07:50:47;;;;;;;4.30;3.08;;;;;;;;;;4994698;28;20034;-61
2024/03/22 07:53:13;;;;;;;6.10;3.00;;;;;;;;;;5006288;28;20250;-61
2024/03/22 07:55:39;;;;;;;4.75;3.10;;;;;;;;;;5006936;28;20107;-60
2024/03/22 07:58:05;;;;;;;3.75;2.90;;;;;;;;;;5000603;28;20038;-60
2024/03/22 08:00:31;;;;;;;4.07;2.95;;;;;;;;;;4996892;28;20048;-60
2024/03/22 08:02:56;;;;;;;5.63;3.50;;;;;;;;;;5011713;28;20132;-63
2024/03/22 08:05:22;;;;;;;3.70;2.88;;;;;;;;;;4995059;28;20088;-61
2024/03/22 08:07:47;;;;;;;4.13;3.05;;;;;;;;;;5006517;28;20513;-61
2024/03/22 08:10:15;;;;;;;4.85;3.22;;;;;;;;;;5004861;28;20148;-61
2024/03/22 08:12:40;;;;;;;4.95;3.10;;;;;;;;;;5001561;28;20060;-61
2024/03/22 08:15:06;;;;;;;5.85;3.08;;;;;;;;;;5000210;28;20030;-63
2024/03/22 08:17:31;;;;;;;4.28;2.65;;;;;;;;;;5006578;28;20088;-61
2024/03/22 08:19:56;;;;;;;5.10;3.17;;;;;;;;;;5003532;28;20092;-61
2024/03/22 08:22:22;;;;;;;4.53;2.92;;;;;;;;;;5005402;28;20053;-61
2024/03/22 08:24:47;;;;;;;3.90;2.80;;;;;;;;;;5006540;28;20664;-62
2024/03/22 08:27:13;;;;;;;5.15;3.03;;;;;;;;;;5004132;28;20034;-61
2024/03/22 08:29:39;;;;;;;5.55;3.15;;;;;;;;;;5003448;28;20406;-61
2024/03/22 08:32:05;;;;;;;3.97;2.80;;;;;;;;;;5006587;28;20044;-62
2024/03/22 08:34:32;;;;;;;3.65;2.75;;;;;;;;;;5006865;28;20129;-62
2024/03/22 08:36:57;;;;;;;4.45;2.67;;;;;;;;;;4990631;28;20040;-61
2024/03/22 08:39:24;;;;;;;6.00;3.25;;;;;;;;;;5001289;28;20117;-61
2024/03/22 08:41:49;;;;;;;3.70;2.88;;;;;;;;;;5022148;28;20041;-61
2024/03/22 08:44:14;;;;;;;3.80;2.90;;;;;;;;;;5005420;28;20790;-62
2024/03/22 08:46:40;;;;;;;3.60;3.05;;;;;;;;;;5006458;28;20042;-61
2024/03/22 08:49:05;;;;;;;3.97;2.90;;;;;;;;;;4996501;28;20034;-61
2024/03/22 08:51:30;;;;;;;5.25;2.85;;;;;;;;;;5001793;28;20073;-62
2024/03/22 08:53:55;;;;;;;4.78;3.30;;;;;;;;;;5003149;28;20113;-61
2024/03/22 08:56:21;;;;;;;3.90;3.20;;;;;;;;;;5003798;28;20042;-60
2024/03/22 08:58:46;;;;;;;4.72;3.03;;;;;;;;;;5003569;28;20091;-60
2024/03/22 09:01:11;;;;;;;4.20;3.30;;;;;;;;;;5005731;28;20464;-61
2024/03/22 09:03:37;;;;;;;5.18;3.00;;;;;;;;;;5004732;28;20064;-61
2024/03/22 09:06:02;;;;;;;4.13;2.70;;;;;;;;;;5003617;28;20039;-60
2024/03/22 09:08:29;;;;;;;5.28;3.05;;;;;;;;;;5006154;28;20064;-61
2024/03/22 09:10:54;;;;;;;4.28;3.00;;;;;;;;;;5003912;28;20038;-61
2024/03/22 09:13:19;;;;;;;4.50;3.00;;;;;;;;;;5003291;28;20042;-60
2024/03/22 09:15:45;;;;;;;3.58;2.78;;;;;;;;;;5005330;28;20451;-61
2024/03/22 09:18:10;;;;;;;3.75;2.80;;;;;;;;;;5002352;28;20041;-62
2024/03/22 09:20:36;;;;;;;4.13;3.00;;;;;;;;;;5005245;28;20113;-60
2024/03/22 09:23:01;;;;;;;3.88;2.75;;;;;;;;;;5002932;28;20062;-62
2024/03/22 09:25:27;;;;;;;4.40;2.58;;;;;;;;;;5005069;28;20391;-61
2024/03/22 09:27:52;;;;;;;4.63;2.85;;;;;;;;;;5003530;28;20037;-61
2024/03/22 09:30:18;;;;;;;3.33;2.53;;;;;;;;;;5003464;28;20038;-61
2024/03/22 09:32:43;;;;;;;4.20;2.72;;;;;;;;;;5004292;28;20434;-60
2024/03/22 09:35:08;;;;;;;3.75;2.63;;;;;;;;;;5005548;28;20037;-60
2024/03/22 09:37:34;;;;;;;3.70;2.80;;;;;;;;;;5004843;28;20489;-59
2024/03/22 09:39:59;;;;;;;2.88;2.47;;;;;;;;;;5005009;28;20034;-61
2024/03/22 09:42:25;;;;;;;3.83;2.53;;;;;;;;;;5003876;28;20041;-61
2024/03/22 09:44:50;;;;;;;3.15;2.47;;;;;;;;;;5002095;28;20041;-61
2024/03/22 09:47:16;;;;;;;4.80;2.95;;;;;;;;;;4999779;28;20062;-62
2024/03/22 09:49:46;;;;;;;3.63;2.42;;;;;;;;;;5005493;28;20107;-61
2024/03/22 09:52:11;;;;;;;3.38;2.55;;;;;;;;;;5002882;28;20038;-61
2024/03/22 09:54:37;;;;;;;4.32;2.58;;;;;;;;;;4994907;28;20041;-62
2024/03/22 09:57:02;;;;;;;4.03;2.50;;;;;;;;;;4998877;28;20034;-61
2024/03/22 09:59:27;;;;;;;4.20;2.90;;;;;;;;;;4986375;28;20486;-62
2024/03/22 10:01:52;;;;;;;4.68;2.90;;;;;;;;;;5001064;28;20515;-61
2024/03/22 10:04:19;;;;;;;3.95;2.42;;;;;;;;;;4987733;28;20100;-61
2024/03/22 10:06:45;;;;;;;3.35;2.50;;;;;;;;;;4997610;28;20054;-61
2024/03/22 10:09:11;;;;;;;4.13;2.70;;;;;;;;;;4994184;28;20061;-61
2024/03/22 10:11:36;;;;;;;3.75;2.67;;;;;;;;;;5000075;28;20501;-61
2024/03/22 10:14:02;;;;;;;3.78;2.55;;;;;;;;;;4992535;28;20034;-61
2024/03/22 10:16:32;;;;;;;3.47;2.42;;;;;;;;;;5000752;28;20042;-61
2024/03/22 10:18:57;;;;;;;3.78;2.88;;;;;;;;;;5003161;28;20126;-61
2024/03/22 10:21:22;;;;;;;4.07;2.38;;;;;;;;;;4998670;28;20971;-61
2024/03/22 10:23:50;;;;;;;3.97;2.55;;;;;;;;;;4996769;28;20034;-63
2024/03/22 10:26:15;;;;;;;3.17;2.28;;;;;;;;;;4998321;28;20066;-61
2024/03/22 10:28:44;;;;;;;3.53;2.58;;;;;;;;;;4998874;28;20034;-61
2024/03/22 10:31:10;;;;;;;3.55;2.50;;;;;;;;;;5003783;28;20061;-62
2024/03/22 10:33:35;;;;;;;3.47;2.33;;;;;;;;;;4996529;28;20042;-62
2024/03/22 10:36:00;;;;;;;3.83;2.65;;;;;;;;;;5002391;28;20521;-61
2024/03/22 10:38:26;;;;;;;3.38;2.47;;;;;;;;;;4996952;28;20053;-62
2024/03/22 10:40:51;;;;;;;5.00;2.50;;;;;;;;;;5003053;28;20034;-62
2024/03/22 10:43:17;;;;;;;3.78;2.53;;;;;;;;;;4988189;28;20188;-63
2024/03/22 10:45:42;;;;;;;4.45;2.53;;;;;;;;;;4991192;28;20285;-61
2024/03/22 10:48:11;;;;;;;4.93;2.63;;;;;;;;;;4989619;28;20475;-62
2024/03/22 10:50:39;;;;;;;2.97;2.28;;;;;;;;;;4991207;28;20044;-61
2024/03/22 10:53:06;;;;;;;3.90;2.30;;;;;;;;;;4992670;28;20599;-61
2024/03/22 10:55:35;;;;;;;3.72;2.20;;;;;;;;;;4998479;28;20030;-61
2024/03/22 10:58:01;;;;;;;4.03;2.50;;;;;;;;;;4996404;28;20461;-62
2024/03/22 11:00:32;;;;;;;2.97;2.22;;;;;;;;;;4998124;28;20037;-61
2024/03/22 11:02:58;;;;;;;3.47;2.20;;;;;;;;;;4990726;28;20091;-60
2024/03/22 11:05:23;;;;;;;4.05;2.40;;;;;;;;;;4998189;28;20022;-61
2024/03/22 11:08:01;;;;;;;4.13;2.42;;;;;;;;;;4992174;28;20803;-60
2024/03/22 11:10:32;;;;;;;3.38;2.50;;;;;;;;;;4999141;28;20093;-61
2024/03/22 11:13:04;;;;;;;3.80;2.30;;;;;;;;;;4997185;28;20550;-61
2024/03/22 11:15:29;;;;;;;3.95;2.15;;;;;;;;;;4998265;28;20050;-61
2024/03/22 11:17:55;;;;;;;3.70;2.28;;;;;;;;;;5014416;28;20061;-62
2024/03/22 11:20:20;;;;;;;3.97;2.15;;;;;;;;;;4998455;28;20779;-60
2024/03/22 11:22:46;;;;;;;2.72;2.13;;;;;;;;;;5001789;28;20046;-61
2024/03/22 11:25:11;;;;;;;4.35;2.10;;;;;;;;;;5001955;28;20037;-65
2024/03/22 11:27:36;;;;;;;3.15;2.08;;;;;;;;;;5001547;28;20038;-62
2024/03/22 11:30:03;;;;;;;3.20;2.20;;;;;;;;;;5002472;28;20107;-62
2024/03/22 11:32:29;;;;;;;4.47;2.63;;;;;;;;;;5001964;28;20033;-61
2024/03/22 11:34:54;;;;;;;2.80;2.10;;;;;;;;;;5001739;28;20048;-62
2024/03/22 11:37:19;;;;;;;3.28;2.05;;;;;;;;;;5001729;28;20045;-63
2024/03/22 11:39:45;;;;;;;2.97;2.03;;;;;;;;;;5002584;28;20520;-60
2024/03/22 11:42:10;;;;;;;3.10;2.17;;;;;;;;;;5001033;28;20077;-62
2024/03/22 11:44:36;;;;;;;3.60;2.13;;;;;;;;;;5001657;28;20123;-63
2024/03/22 11:47:03;;;;;;;2.60;1.95;;;;;;;;;;5001154;28;20119;-62
2024/03/22 11:49:28;;;;;;;5.50;2.83;;;;;;;;;;5001494;28;20041;-62
2024/03/22 11:51:53;;;;;;;4.85;2.47;;;;;;;;;;4994454;28;20111;-61
2024/03/22 11:54:19;;;;;;;4.10;2.10;;;;;;;;;;5001072;28;20041;-62
2024/03/22 11:56:45;;;;;;;3.83;2.13;;;;;;;;;;5001781;28;20045;-61
2024/03/22 11:59:10;;;;;;;2.92;2.00;;;;;;;;;;4999586;28;20044;-61
2024/03/22 12:01:35;;;;;;;4.85;2.13;;;;;;;;;;5001186;28;20066;-61
2024/03/22 12:04:01;;;;;;;2.72;2.03;;;;;;;;;;5000178;28;20033;-60
2024/03/22 12:06:26;;;;;;;3.35;2.08;;;;;;;;;;4999207;28;20104;-61
2024/03/22 12:08:52;;;;;;;4.20;1.85;;;;;;;;;;5000184;28;20670;-64
2024/03/22 12:11:17;;;;;;;3.13;2.22;;;;;;;;;;5001774;28;20397;-60
2024/03/22 12:13:42;;;;;;;3.50;2.00;;;;;;;;;;5000891;28;20036;-61
2024/03/22 12:16:08;;;;;;;2.95;2.00;;;;;;;;;;5001289;28;20038;-61
2024/03/22 12:18:33;;;;;;;2.70;2.00;;;;;;;;;;5000143;28;20040;-61
2024/03/22 12:20:59;;;;;;;3.33;1.70;;;;;;;;;;5001272;28;20029;-63
2024/03/22 12:23:24;;;;;;;3.72;2.00;;;;;;;;;;5000399;28;20636;-61
2024/03/22 12:25:50;;;;;;;2.60;1.80;;;;;;;;;;4999942;28;20040;-61
2024/03/22 12:28:15;;;;;;;2.80;1.73;;;;;;;;;;5000682;28;20044;-63
2024/03/22 12:30:41;;;;;;;3.65;2.05;;;;;;;;;;5001010;28;20163;-61
2024/03/22 12:33:10;;;;;;;2.90;1.80;;;;;;;;;;5000297;28;20129;-61
2024/03/22 12:35:35;;;;;;;3.17;2.13;;;;;;;;;;5000655;28;20532;-59
2024/03/22 12:38:00;;;;;;;3.88;1.95;;;;;;;;;;5000527;28;20026;-63
2024/03/22 12:40:26;;;;;;;2.72;1.80;;;;;;;;;;4998661;28;20037;-61
2024/03/22 12:42:51;;;;;;;3.88;2.00;;;;;;;;;;4998734;28;20513;-60
2024/03/22 12:45:17;;;;;;;2.95;1.98;;;;;;;;;;5001660;28;20121;-60
2024/03/22 12:47:42;;;;;;;2.72;1.90;;;;;;;;;;5001098;28;20026;-63
2024/03/22 12:50:07;;;;;;;4.05;2.17;;;;;;;;;;5000580;28;20030;-64
2024/03/22 12:52:33;;;;;;;2.80;2.10;;;;;;;;;;5000740;28;20140;-61
2024/03/22 12:54:58;;;;;;;2.45;1.63;;;;;;;;;;4999893;28;20061;-61
2024/03/22 12:57:24;;;;;;;2.17;1.58;;;;;;;;;;5000408;28;20038;-62
2024/03/22 12:59:49;;;;;;;3.10;1.80;;;;;;;;;;5000449;28;20078;-60
2024/03/22 13:02:14;;;;;;;2.45;1.80;;;;;;;;;;4999911;28;20198;-60
2024/03/22 13:04:40;;;;;;;2.60;1.92;;;;;;;;;;4996708;28;20099;-60
2024/03/22 13:07:06;;;;;;;2.70;1.80;;;;;;;;;;5007569;28;20636;-63
2024/03/22 13:09:31;;;;;;;2.20;1.80;;;;;;;;;;4999958;28;20038;-62
2024/03/22 13:11:57;;;;;;;2.40;1.63;;;;;;;;;;5001077;28;20045;-62
2024/03/22 13:14:23;;;;;;;2.60;1.80;;;;;;;;;;4999552;28;20045;-62
2024/03/22 13:16:49;;;;;;;3.45;1.92;;;;;;;;;;5002108;28;20038;-62
2024/03/22 13:19:15;;;;;;;2.53;1.67;;;;;;;;;;5001188;28;20037;-61
2024/03/22 13:21:40;;;;;;;2.88;1.85;;;;;;;;;;5002493;28;20030;-61
2024/03/22 13:24:05;;;;;;;2.67;1.85;;;;;;;;;;5005290;28;20037;-61
2024/03/22 13:26:31;;;;;;;3.53;2.10;;;;;;;;;;4994469;28;20196;-60
2024/03/22 13:28:56;;;;;;;2.63;1.63;;;;;;;;;;5004502;28;20045;-60
2024/03/22 13:31:22;;;;;;;3.10;1.90;;;;;;;;;;4990864;28;20100;-61
2024/03/22 13:33:47;;;;;;;2.50;1.83;;;;;;;;;;4994543;28;20026;-60
2024/03/22 13:36:13;;;;;;;2.70;1.60;;;;;;;;;;4997172;28;20034;-60
2024/03/22 13:38:38;;;;;;;2.88;1.83;;;;;;;;;;5006352;28;20505;-60
2024/03/22 13:41:05;;;;;;;2.22;1.73;;;;;;;;;;5001596;28;20378;-61
2024/03/22 13:43:31;;;;;;;2.70;1.42;;;;;;;;;;5005615;28;20046;-61
2024/03/22 13:45:56;;;;;;;3.17;1.88;;;;;;;;;;4997206;28;20034;-61
2024/03/22 13:48:25;;;;;;;2.67;1.98;;;;;;;;;;5006352;28;20141;-61
2024/03/22 13:50:54;;;;;;;8.35;2.42;;;;;;;;;;5002917;28;20425;-61
2024/03/22 13:53:21;;;;;;;4.63;1.80;;;;;;;;;;5005085;28;20042;-60
2024/03/22 13:55:47;;;;;;;4.25;2.38;;;;;;;;;;4998022;28;20041;-61
2024/03/22 13:58:12;;;;;;;5.95;2.35;;;;;;;;;;4999640;28;20041;-59
2024/03/22 14:00:38;;;;;;;4.60;2.28;;;;;;;;;;4999769;28;20037;-60
2024/03/22 14:03:03;;;;;;;5.68;2.65;;;;;;;;;;5002843;28;20034;-60
2024/03/22 14:05:28;;;;;;;4.28;2.60;;;;;;;;;;5005512;28;20103;-60
2024/03/22 14:07:54;;;;;;;5.10;2.60;;;;;;;;;;5004841;28;20037;-60
2024/03/22 14:10:19;;;;;;;3.30;2.25;;;;;;;;;;5003011;28;20041;-60
2024/03/22 14:12:47;;;;;;;6.05;3.05;;;;;;;;;;5003673;28;20034;-62
2024/03/22 14:15:13;;;;;;;5.20;2.70;;;;;;;;;;5004802;28;20033;-59
2024/03/22 14:17:38;;;;;;;4.22;2.63;;;;;;;;;;4999135;28;20097;-61
2024/03/22 14:20:11;;;;;;;5.28;2.88;;;;;;;;;;5000992;28;20395;-60
2024/03/22 14:22:38;;;;;;;6.20;2.60;;;;;;;;;;4986242;28;20042;-59
2024/03/22 14:25:03;;;;;;;4.28;2.55;;;;;;;;;;5004851;28;20410;-60
2024/03/22 14:27:29;;;;;;;5.50;2.60;;;;;;;;;;5003770;28;20049;-59
2024/03/22 14:29:54;;;;;;;3.75;2.55;;;;;;;;;;5004345;28;20149;-60
2024/03/22 14:32:19;;;;;;;5.70;3.05;;;;;;;;;;5003041;28;20065;-59